sensor_id;sensor_type;location;lat;lon;timestamp;P1;durP1;ratioP1;P2;durP2;ratioP2
64351;SDS011;50680;52.626;-8.668;2022-08-19T00:02:11;15.55;;;2.42;;
64351;SDS011;50680;52.626;-8.668;2022-08-19T00:04:57;10.80;;;2.15;;
64351;SDS011;50680;52.626;-8.668;2022-08-19T00:07:31;17.63;;;2.47;;
64351;SDS011;50680;52.626;-8.668;2022-08-19T00:10:02;14.13;;;1.92;;
64351;SDS011;50680;52.626;-8.668;2022-08-19T00:12:40;9.93;;;1.88;;
64351;SDS011;50680;52.626;-8.668;2022-08-19T00:15:14;12.30;;;1.63;;
64351;SDS011;50680;52.626;-8.668;2022-08-19T00:17:43;18.25;;;2.25;;
64351;SDS011;50680;52.626;-8.668;2022-08-19T00:20:14;10.85;;;1.50;;
64351;SDS011;50680;52.626;-8.668;2022-08-19T00:22:46;18.45;;;1.42;;
64351;SDS011;50680;52.626;-8.668;2022-08-19T00:25:15;14.00;;;2.20;;
64351;SDS011;50680;52.626;-8.668;2022-08-19T00:27:55;19.15;;;2.33;;
64351;SDS011;50680;52.626;-8.668;2022-08-19T00:30:23;20.83;;;1.98;;
64351;SDS011;50680;52.626;-8.668;2022-08-19T00:32:50;16.92;;;1.95;;
64351;SDS011;50680;52.626;-8.668;2022-08-19T00:35:17;17.23;;;1.98;;
64351;SDS011;50680;52.626;-8.668;2022-08-19T00:37:48;17.80;;;2.08;;
64351;SDS011;50680;52.626;-8.668;2022-08-19T00:40:16;17.90;;;2.10;;
64351;SDS011;50680;52.626;-8.668;2022-08-19T00:42:50;21.15;;;2.28;;
64351;SDS011;50680;52.626;-8.668;2022-08-19T00:45:30;19.60;;;2.25;;
64351;SDS011;50680;52.626;-8.668;2022-08-19T00:51:02;19.98;;;2.05;;
64351;SDS011;50680;52.626;-8.668;2022-08-19T00:53:38;21.38;;;2.55;;
64351;SDS011;50680;52.626;-8.668;2022-08-19T00:56:27;16.63;;;2.03;;
64351;SDS011;50680;52.626;-8.668;2022-08-19T00:59:00;16.92;;;1.65;;
64351;SDS011;50680;52.626;-8.668;2022-08-19T01:01:36;15.18;;;1.60;;
64351;SDS011;50680;52.626;-8.668;2022-08-19T01:04:17;15.77;;;1.83;;
64351;SDS011;50680;52.626;-8.668;2022-08-19T01:06:55;19.88;;;2.00;;
64351;SDS011;50680;52.626;-8.668;2022-08-19T01:09:27;14.70;;;1.88;;
64351;SDS011;50680;52.626;-8.668;2022-08-19T01:12:03;11.73;;;1.80;;
64351;SDS011;50680;52.626;-8.668;2022-08-19T01:14:35;12.65;;;1.70;;
64351;SDS011;50680;52.626;-8.668;2022-08-19T01:17:10;11.13;;;1.42;;
64351;SDS011;50680;52.626;-8.668;2022-08-19T01:19:45;17.45;;;1.38;;
64351;SDS011;50680;52.626;-8.668;2022-08-19T01:25:01;18.13;;;2.30;;
64351;SDS011;50680;52.626;-8.668;2022-08-19T01:27:44;18.38;;;1.80;;
64351;SDS011;50680;52.626;-8.668;2022-08-19T01:30:16;22.17;;;1.88;;
64351;SDS011;50680;52.626;-8.668;2022-08-19T01:32:49;16.95;;;2.10;;
64351;SDS011;50680;52.626;-8.668;2022-08-19T01:35:18;19.95;;;1.67;;
64351;SDS011;50680;52.626;-8.668;2022-08-19T01:37:48;13.75;;;2.28;;
64351;SDS011;50680;52.626;-8.668;2022-08-19T01:40:19;19.40;;;1.70;;
64351;SDS011;50680;52.626;-8.668;2022-08-19T01:42:48;15.55;;;2.10;;
64351;SDS011;50680;52.626;-8.668;2022-08-19T01:45:17;14.55;;;1.83;;
64351;SDS011;50680;52.626;-8.668;2022-08-19T01:47:47;13.70;;;1.95;;
64351;SDS011;50680;52.626;-8.668;2022-08-19T01:50:27;17.50;;;2.20;;
64351;SDS011;50680;52.626;-8.668;2022-08-19T01:52:57;16.05;;;2.17;;
64351;SDS011;50680;52.626;-8.668;2022-08-19T01:55:31;19.92;;;1.85;;
64351;SDS011;50680;52.626;-8.668;2022-08-19T01:58:00;14.65;;;2.03;;
64351;SDS011;50680;52.626;-8.668;2022-08-19T02:00:32;18.35;;;2.08;;
64351;SDS011;50680;52.626;-8.668;2022-08-19T02:03:03;19.67;;;1.98;;
64351;SDS011;50680;52.626;-8.668;2022-08-19T02:05:48;17.20;;;2.10;;
64351;SDS011;50680;52.626;-8.668;2022-08-19T02:08:30;23.08;;;2.83;;
64351;SDS011;50680;52.626;-8.668;2022-08-19T02:11:09;12.95;;;2.08;;
64351;SDS011;50680;52.626;-8.668;2022-08-19T02:14:09;18.85;;;2.47;;
64351;SDS011;50680;52.626;-8.668;2022-08-19T02:16:42;18.85;;;2.15;;
64351;SDS011;50680;52.626;-8.668;2022-08-19T02:19:27;24.13;;;2.38;;
64351;SDS011;50680;52.626;-8.668;2022-08-19T02:22:06;20.10;;;1.90;;
64351;SDS011;50680;52.626;-8.668;2022-08-19T02:24:39;16.02;;;2.47;;
64351;SDS011;50680;52.626;-8.668;2022-08-19T02:27:30;15.40;;;1.98;;
64351;SDS011;50680;52.626;-8.668;2022-08-19T02:30:34;19.80;;;1.88;;
64351;SDS011;50680;52.626;-8.668;2022-08-19T02:33:02;16.80;;;1.77;;
64351;SDS011;50680;52.626;-8.668;2022-08-19T02:35:32;22.50;;;2.08;;
64351;SDS011;50680;52.626;-8.668;2022-08-19T02:37:59;23.30;;;2.40;;
64351;SDS011;50680;52.626;-8.668;2022-08-19T02:40:49;22.00;;;1.88;;
64351;SDS011;50680;52.626;-8.668;2022-08-19T02:43:18;20.98;;;2.10;;
64351;SDS011;50680;52.626;-8.668;2022-08-19T02:45:49;13.05;;;1.88;;
64351;SDS011;50680;52.626;-8.668;2022-08-19T02:48:19;15.50;;;1.42;;
64351;SDS011;50680;52.626;-8.668;2022-08-19T02:50:48;12.40;;;1.90;;
64351;SDS011;50680;52.626;-8.668;2022-08-19T02:53:23;17.95;;;1.25;;
64351;SDS011;50680;52.626;-8.668;2022-08-19T02:55:53;17.75;;;1.58;;
64351;SDS011;50680;52.626;-8.668;2022-08-19T02:58:23;11.98;;;1.30;;
64351;SDS011;50680;52.626;-8.668;2022-08-19T03:00:53;9.38;;;1.58;;
64351;SDS011;50680;52.626;-8.668;2022-08-19T03:03:21;12.45;;;1.85;;
64351;SDS011;50680;52.626;-8.668;2022-08-19T03:05:49;11.95;;;1.30;;
64351;SDS011;50680;52.626;-8.668;2022-08-19T03:08:23;11.50;;;1.20;;
64351;SDS011;50680;52.626;-8.668;2022-08-19T03:10:52;18.45;;;2.08;;
64351;SDS011;50680;52.626;-8.668;2022-08-19T03:13:20;16.20;;;1.42;;
64351;SDS011;50680;52.626;-8.668;2022-08-19T03:15:48;15.70;;;1.80;;
64351;SDS011;50680;52.626;-8.668;2022-08-19T03:18:18;11.95;;;1.45;;
64351;SDS011;50680;52.626;-8.668;2022-08-19T03:20:49;19.40;;;1.67;;
64351;SDS011;50680;52.626;-8.668;2022-08-19T03:23:19;24.95;;;2.15;;
64351;SDS011;50680;52.626;-8.668;2022-08-19T03:25:48;14.68;;;1.45;;
64351;SDS011;50680;52.626;-8.668;2022-08-19T03:28:37;11.60;;;1.60;;
64351;SDS011;50680;52.626;-8.668;2022-08-19T03:31:10;11.45;;;1.42;;
64351;SDS011;50680;52.626;-8.668;2022-08-19T03:33:59;15.95;;;1.83;;
64351;SDS011;50680;52.626;-8.668;2022-08-19T03:36:26;13.05;;;1.48;;
64351;SDS011;50680;52.626;-8.668;2022-08-19T03:38:56;18.58;;;1.58;;
64351;SDS011;50680;52.626;-8.668;2022-08-19T03:41:27;12.07;;;1.50;;
64351;SDS011;50680;52.626;-8.668;2022-08-19T03:44:10;12.43;;;1.20;;
64351;SDS011;50680;52.626;-8.668;2022-08-19T03:46:43;13.48;;;1.77;;
64351;SDS011;50680;52.626;-8.668;2022-08-19T03:49:11;11.57;;;0.93;;
64351;SDS011;50680;52.626;-8.668;2022-08-19T03:51:40;9.20;;;1.13;;
64351;SDS011;50680;52.626;-8.668;2022-08-19T03:54:09;8.02;;;1.23;;
64351;SDS011;50680;52.626;-8.668;2022-08-19T03:56:40;11.02;;;1.00;;
64351;SDS011;50680;52.626;-8.668;2022-08-19T03:59:11;10.73;;;1.10;;
64351;SDS011;50680;52.626;-8.668;2022-08-19T04:01:42;16.25;;;1.25;;
64351;SDS011;50680;52.626;-8.668;2022-08-19T04:04:10;14.98;;;1.30;;
64351;SDS011;50680;52.626;-8.668;2022-08-19T04:06:40;17.25;;;1.67;;
64351;SDS011;50680;52.626;-8.668;2022-08-19T04:09:08;11.15;;;1.40;;
64351;SDS011;50680;52.626;-8.668;2022-08-19T04:11:38;17.60;;;1.83;;
64351;SDS011;50680;52.626;-8.668;2022-08-19T04:14:15;7.47;;;1.20;;
64351;SDS011;50680;52.626;-8.668;2022-08-19T04:16:46;9.48;;;0.90;;
64351;SDS011;50680;52.626;-8.668;2022-08-19T04:19:16;11.45;;;1.25;;
64351;SDS011;50680;52.626;-8.668;2022-08-19T04:21:47;12.15;;;1.10;;
64351;SDS011;50680;52.626;-8.668;2022-08-19T04:24:15;9.52;;;1.00;;
64351;SDS011;50680;52.626;-8.668;2022-08-19T04:26:43;6.00;;;1.00;;
64351;SDS011;50680;52.626;-8.668;2022-08-19T04:29:17;4.40;;;0.82;;
64351;SDS011;50680;52.626;-8.668;2022-08-19T04:31:55;9.98;;;1.02;;
64351;SDS011;50680;52.626;-8.668;2022-08-19T04:34:24;10.07;;;0.80;;
64351;SDS011;50680;52.626;-8.668;2022-08-19T04:36:54;6.88;;;0.80;;
64351;SDS011;50680;52.626;-8.668;2022-08-19T04:39:25;4.72;;;0.70;;
64351;SDS011;50680;52.626;-8.668;2022-08-19T04:42:18;7.25;;;1.30;;
64351;SDS011;50680;52.626;-8.668;2022-08-19T04:45:10;9.52;;;0.73;;
64351;SDS011;50680;52.626;-8.668;2022-08-19T04:47:43;4.75;;;0.60;;
64351;SDS011;50680;52.626;-8.668;2022-08-19T04:52:57;12.00;;;1.35;;
64351;SDS011;50680;52.626;-8.668;2022-08-19T04:55:24;5.38;;;0.70;;
64351;SDS011;50680;52.626;-8.668;2022-08-19T04:57:54;7.03;;;1.02;;
64351;SDS011;50680;52.626;-8.668;2022-08-19T05:00:23;4.07;;;0.52;;
64351;SDS011;50680;52.626;-8.668;2022-08-19T05:02:50;9.27;;;0.68;;
64351;SDS011;50680;52.626;-8.668;2022-08-19T05:05:17;8.25;;;1.02;;
64351;SDS011;50680;52.626;-8.668;2022-08-19T05:07:46;4.47;;;0.57;;
64351;SDS011;50680;52.626;-8.668;2022-08-19T05:10:13;4.80;;;0.65;;
64351;SDS011;50680;52.626;-8.668;2022-08-19T05:12:40;6.70;;;0.68;;
64351;SDS011;50680;52.626;-8.668;2022-08-19T05:15:08;3.92;;;0.85;;
64351;SDS011;50680;52.626;-8.668;2022-08-19T05:17:36;8.00;;;0.75;;
64351;SDS011;50680;52.626;-8.668;2022-08-19T05:20:05;6.07;;;0.80;;
64351;SDS011;50680;52.626;-8.668;2022-08-19T05:22:52;7.80;;;0.90;;
64351;SDS011;50680;52.626;-8.668;2022-08-19T05:25:20;5.53;;;0.65;;
64351;SDS011;50680;52.626;-8.668;2022-08-19T05:27:53;9.43;;;0.80;;
64351;SDS011;50680;52.626;-8.668;2022-08-19T05:30:20;10.13;;;0.95;;
64351;SDS011;50680;52.626;-8.668;2022-08-19T05:33:07;7.95;;;0.80;;
64351;SDS011;50680;52.626;-8.668;2022-08-19T05:35:37;9.20;;;0.80;;
64351;SDS011;50680;52.626;-8.668;2022-08-19T05:38:05;8.57;;;0.82;;
64351;SDS011;50680;52.626;-8.668;2022-08-19T05:40:37;10.82;;;1.20;;
64351;SDS011;50680;52.626;-8.668;2022-08-19T05:43:06;7.72;;;1.45;;
64351;SDS011;50680;52.626;-8.668;2022-08-19T05:45:38;7.80;;;1.25;;
64351;SDS011;50680;52.626;-8.668;2022-08-19T05:48:07;6.28;;;0.70;;
64351;SDS011;50680;52.626;-8.668;2022-08-19T05:50:38;4.60;;;0.70;;
64351;SDS011;50680;52.626;-8.668;2022-08-19T05:53:07;7.70;;;0.60;;
64351;SDS011;50680;52.626;-8.668;2022-08-19T05:55:35;8.18;;;0.90;;
64351;SDS011;50680;52.626;-8.668;2022-08-19T05:58:04;9.07;;;1.10;;
64351;SDS011;50680;52.626;-8.668;2022-08-19T06:00:34;7.68;;;0.90;;
64351;SDS011;50680;52.626;-8.668;2022-08-19T06:03:03;7.97;;;0.90;;
64351;SDS011;50680;52.626;-8.668;2022-08-19T06:05:38;5.68;;;0.80;;
64351;SDS011;50680;52.626;-8.668;2022-08-19T06:08:17;15.88;;;1.10;;
64351;SDS011;50680;52.626;-8.668;2022-08-19T06:11:15;5.75;;;0.90;;
64351;SDS011;50680;52.626;-8.668;2022-08-19T06:13:55;9.52;;;0.77;;
64351;SDS011;50680;52.626;-8.668;2022-08-19T06:16:28;10.32;;;1.00;;
64351;SDS011;50680;52.626;-8.668;2022-08-19T06:19:06;15.00;;;1.58;;
64351;SDS011;50680;52.626;-8.668;2022-08-19T06:21:38;7.75;;;0.82;;
64351;SDS011;50680;52.626;-8.668;2022-08-19T06:24:07;9.48;;;0.80;;
64351;SDS011;50680;52.626;-8.668;2022-08-19T06:26:38;9.10;;;0.93;;
64351;SDS011;50680;52.626;-8.668;2022-08-19T06:29:07;3.65;;;0.60;;
64351;SDS011;50680;52.626;-8.668;2022-08-19T06:31:50;6.88;;;0.90;;
64351;SDS011;50680;52.626;-8.668;2022-08-19T06:34:21;9.20;;;1.05;;
64351;SDS011;50680;52.626;-8.668;2022-08-19T06:36:52;16.17;;;0.90;;
64351;SDS011;50680;52.626;-8.668;2022-08-19T06:39:28;9.43;;;1.15;;
64351;SDS011;50680;52.626;-8.668;2022-08-19T06:42:08;5.57;;;0.90;;
64351;SDS011;50680;52.626;-8.668;2022-08-19T06:44:39;7.03;;;1.52;;
64351;SDS011;50680;52.626;-8.668;2022-08-19T06:47:18;6.43;;;1.00;;
64351;SDS011;50680;52.626;-8.668;2022-08-19T06:49:55;7.20;;;0.85;;
64351;SDS011;50680;52.626;-8.668;2022-08-19T06:52:32;5.78;;;0.70;;
64351;SDS011;50680;52.626;-8.668;2022-08-19T06:55:11;5.22;;;0.75;;
64351;SDS011;50680;52.626;-8.668;2022-08-19T07:00:15;9.27;;;1.00;;
64351;SDS011;50680;52.626;-8.668;2022-08-19T07:02:53;4.05;;;0.82;;
64351;SDS011;50680;52.626;-8.668;2022-08-19T07:05:31;9.00;;;0.90;;
64351;SDS011;50680;52.626;-8.668;2022-08-19T07:07:59;6.68;;;0.98;;
64351;SDS011;50680;52.626;-8.668;2022-08-19T07:10:30;8.20;;;1.23;;
64351;SDS011;50680;52.626;-8.668;2022-08-19T07:13:08;11.30;;;1.48;;
64351;SDS011;50680;52.626;-8.668;2022-08-19T07:15:42;9.35;;;0.82;;
64351;SDS011;50680;52.626;-8.668;2022-08-19T07:18:11;6.97;;;1.00;;
64351;SDS011;50680;52.626;-8.668;2022-08-19T07:21:02;4.63;;;0.73;;
64351;SDS011;50680;52.626;-8.668;2022-08-19T07:23:37;10.15;;;1.23;;
64351;SDS011;50680;52.626;-8.668;2022-08-19T07:26:08;7.55;;;0.82;;
64351;SDS011;50680;52.626;-8.668;2022-08-19T07:28:56;8.32;;;0.93;;
64351;SDS011;50680;52.626;-8.668;2022-08-19T07:31:32;8.90;;;1.05;;
64351;SDS011;50680;52.626;-8.668;2022-08-19T07:34:11;6.35;;;0.88;;
64351;SDS011;50680;52.626;-8.668;2022-08-19T07:36:47;9.02;;;1.00;;
64351;SDS011;50680;52.626;-8.668;2022-08-19T07:39:25;10.57;;;1.15;;
64351;SDS011;50680;52.626;-8.668;2022-08-19T07:42:09;8.82;;;1.30;;
64351;SDS011;50680;52.626;-8.668;2022-08-19T07:44:40;9.38;;;1.40;;
64351;SDS011;50680;52.626;-8.668;2022-08-19T07:47:18;4.53;;;0.80;;
64351;SDS011;50680;52.626;-8.668;2022-08-19T07:50:19;7.88;;;0.80;;
64351;SDS011;50680;52.626;-8.668;2022-08-19T07:52:54;8.68;;;0.80;;
64351;SDS011;50680;52.626;-8.668;2022-08-19T07:55:29;6.03;;;0.80;;
64351;SDS011;50680;52.626;-8.668;2022-08-19T07:58:12;8.75;;;1.10;;
64351;SDS011;50680;52.626;-8.668;2022-08-19T08:00:48;12.30;;;1.08;;
64351;SDS011;50680;52.626;-8.668;2022-08-19T08:03:23;8.35;;;1.10;;
64351;SDS011;50680;52.626;-8.668;2022-08-19T08:06:16;7.20;;;1.00;;
64351;SDS011;50680;52.626;-8.668;2022-08-19T08:09:06;8.82;;;0.95;;
64351;SDS011;50680;52.626;-8.668;2022-08-19T08:12:24;7.40;;;1.10;;
64351;SDS011;50680;52.626;-8.668;2022-08-19T08:15:02;12.48;;;1.33;;
64351;SDS011;50680;52.626;-8.668;2022-08-19T08:17:38;11.32;;;0.93;;
64351;SDS011;50680;52.626;-8.668;2022-08-19T08:20:17;10.30;;;1.02;;
64351;SDS011;50680;52.626;-8.668;2022-08-19T08:22:56;10.75;;;1.52;;
64351;SDS011;50680;52.626;-8.668;2022-08-19T08:25:46;6.32;;;1.00;;
64351;SDS011;50680;52.626;-8.668;2022-08-19T08:28:19;6.07;;;1.30;;
64351;SDS011;50680;52.626;-8.668;2022-08-19T08:30:51;8.40;;;1.00;;
64351;SDS011;50680;52.626;-8.668;2022-08-19T08:33:35;10.88;;;1.20;;
64351;SDS011;50680;52.626;-8.668;2022-08-19T08:36:11;8.13;;;1.05;;
64351;SDS011;50680;52.626;-8.668;2022-08-19T08:38:42;8.18;;;1.10;;
64351;SDS011;50680;52.626;-8.668;2022-08-19T08:41:28;10.15;;;1.23;;
64351;SDS011;50680;52.626;-8.668;2022-08-19T08:44:22;7.00;;;1.70;;
64351;SDS011;50680;52.626;-8.668;2022-08-19T08:46:56;15.88;;;1.25;;
64351;SDS011;50680;52.626;-8.668;2022-08-19T08:52:12;7.00;;;0.88;;
64351;SDS011;50680;52.626;-8.668;2022-08-19T08:54:50;6.35;;;1.17;;
64351;SDS011;50680;52.626;-8.668;2022-08-19T08:57:39;9.45;;;1.38;;
64351;SDS011;50680;52.626;-8.668;2022-08-19T09:00:21;9.77;;;1.02;;
64351;SDS011;50680;52.626;-8.668;2022-08-19T09:03:16;5.88;;;1.00;;
64351;SDS011;50680;52.626;-8.668;2022-08-19T09:06:18;8.15;;;0.90;;
64351;SDS011;50680;52.626;-8.668;2022-08-19T09:09:17;5.00;;;1.00;;
64351;SDS011;50680;52.626;-8.668;2022-08-19T09:15:16;7.35;;;1.40;;
64351;SDS011;50680;52.626;-8.668;2022-08-19T09:18:02;8.15;;;1.40;;
64351;SDS011;50680;52.626;-8.668;2022-08-19T09:20:38;12.35;;;1.27;;
64351;SDS011;50680;52.626;-8.668;2022-08-19T09:23:15;6.53;;;1.08;;
64351;SDS011;50680;52.626;-8.668;2022-08-19T09:25:55;7.45;;;1.45;;
64351;SDS011;50680;52.626;-8.668;2022-08-19T09:28:29;10.60;;;1.58;;
64351;SDS011;50680;52.626;-8.668;2022-08-19T09:31:10;8.38;;;1.40;;
64351;SDS011;50680;52.626;-8.668;2022-08-19T09:33:44;6.32;;;1.35;;
64351;SDS011;50680;52.626;-8.668;2022-08-19T09:36:18;7.85;;;1.55;;
64351;SDS011;50680;52.626;-8.668;2022-08-19T09:39:00;7.53;;;1.63;;
64351;SDS011;50680;52.626;-8.668;2022-08-19T09:41:41;4.47;;;1.27;;
64351;SDS011;50680;52.626;-8.668;2022-08-19T09:44:14;9.75;;;1.58;;
64351;SDS011;50680;52.626;-8.668;2022-08-19T09:46:41;10.77;;;1.73;;
64351;SDS011;50680;52.626;-8.668;2022-08-19T09:49:08;11.13;;;1.92;;
64351;SDS011;50680;52.626;-8.668;2022-08-19T09:51:35;8.55;;;1.63;;
64351;SDS011;50680;52.626;-8.668;2022-08-19T09:54:04;9.05;;;1.60;;
64351;SDS011;50680;52.626;-8.668;2022-08-19T09:56:31;11.65;;;1.40;;
64351;SDS011;50680;52.626;-8.668;2022-08-19T09:58:59;9.80;;;1.50;;
64351;SDS011;50680;52.626;-8.668;2022-08-19T10:01:28;12.00;;;1.02;;
64351;SDS011;50680;52.626;-8.668;2022-08-19T10:03:57;10.60;;;1.27;;
64351;SDS011;50680;52.626;-8.668;2022-08-19T10:06:27;7.13;;;1.27;;
64351;SDS011;50680;52.626;-8.668;2022-08-19T10:09:12;10.23;;;1.55;;
64351;SDS011;50680;52.626;-8.668;2022-08-19T10:11:41;15.70;;;2.15;;
64351;SDS011;50680;52.626;-8.668;2022-08-19T10:14:20;10.07;;;1.55;;
64351;SDS011;50680;52.626;-8.668;2022-08-19T10:16:50;10.73;;;1.58;;
64351;SDS011;50680;52.626;-8.668;2022-08-19T10:19:18;16.15;;;2.22;;
64351;SDS011;50680;52.626;-8.668;2022-08-19T10:21:51;14.07;;;1.50;;
64351;SDS011;50680;52.626;-8.668;2022-08-19T10:24:25;14.93;;;1.70;;
64351;SDS011;50680;52.626;-8.668;2022-08-19T10:26:54;14.20;;;1.55;;
64351;SDS011;50680;52.626;-8.668;2022-08-19T10:29:25;11.23;;;1.80;;
64351;SDS011;50680;52.626;-8.668;2022-08-19T10:32:02;10.60;;;1.48;;
64351;SDS011;50680;52.626;-8.668;2022-08-19T10:34:38;11.85;;;1.58;;
64351;SDS011;50680;52.626;-8.668;2022-08-19T10:37:14;11.95;;;1.50;;
64351;SDS011;50680;52.626;-8.668;2022-08-19T10:39:49;9.68;;;1.42;;
64351;SDS011;50680;52.626;-8.668;2022-08-19T10:42:17;10.35;;;1.95;;
64351;SDS011;50680;52.626;-8.668;2022-08-19T10:44:45;7.13;;;1.23;;
64351;SDS011;50680;52.626;-8.668;2022-08-19T10:47:13;15.02;;;1.70;;
64351;SDS011;50680;52.626;-8.668;2022-08-19T10:49:51;8.15;;;1.50;;
64351;SDS011;50680;52.626;-8.668;2022-08-19T10:52:43;12.30;;;1.40;;
64351;SDS011;50680;52.626;-8.668;2022-08-19T10:55:17;13.20;;;1.25;;
64351;SDS011;50680;52.626;-8.668;2022-08-19T10:58:09;13.77;;;1.40;;
64351;SDS011;50680;52.626;-8.668;2022-08-19T11:00:40;11.32;;;1.20;;
64351;SDS011;50680;52.626;-8.668;2022-08-19T11:03:09;10.10;;;1.17;;
64351;SDS011;50680;52.626;-8.668;2022-08-19T11:05:36;8.23;;;1.00;;
64351;SDS011;50680;52.626;-8.668;2022-08-19T11:08:06;11.15;;;1.20;;
64351;SDS011;50680;52.626;-8.668;2022-08-19T11:10:49;11.68;;;1.60;;
64351;SDS011;50680;52.626;-8.668;2022-08-19T11:13:17;12.90;;;1.77;;
64351;SDS011;50680;52.626;-8.668;2022-08-19T11:15:44;11.65;;;1.52;;
64351;SDS011;50680;52.626;-8.668;2022-08-19T11:18:12;9.88;;;2.08;;
64351;SDS011;50680;52.626;-8.668;2022-08-19T11:20:39;17.98;;;1.95;;
64351;SDS011;50680;52.626;-8.668;2022-08-19T11:23:06;12.48;;;1.70;;
64351;SDS011;50680;52.626;-8.668;2022-08-19T11:25:34;13.88;;;2.08;;
64351;SDS011;50680;52.626;-8.668;2022-08-19T11:28:01;13.10;;;1.70;;
64351;SDS011;50680;52.626;-8.668;2022-08-19T11:30:28;10.18;;;1.60;;
64351;SDS011;50680;52.626;-8.668;2022-08-19T11:32:56;9.90;;;1.40;;
64351;SDS011;50680;52.626;-8.668;2022-08-19T11:35:23;8.85;;;1.60;;
64351;SDS011;50680;52.626;-8.668;2022-08-19T11:37:50;5.15;;;1.23;;
64351;SDS011;50680;52.626;-8.668;2022-08-19T11:40:17;5.75;;;1.33;;
64351;SDS011;50680;52.626;-8.668;2022-08-19T11:42:44;3.97;;;0.90;;
64351;SDS011;50680;52.626;-8.668;2022-08-19T11:45:23;11.68;;;1.80;;
64351;SDS011;50680;52.626;-8.668;2022-08-19T11:47:51;6.47;;;1.20;;
64351;SDS011;50680;52.626;-8.668;2022-08-19T11:50:19;6.82;;;1.10;;
64351;SDS011;50680;52.626;-8.668;2022-08-19T11:52:47;4.97;;;1.00;;
64351;SDS011;50680;52.626;-8.668;2022-08-19T11:55:16;5.95;;;0.88;;
64351;SDS011;50680;52.626;-8.668;2022-08-19T11:57:43;6.55;;;0.90;;
64351;SDS011;50680;52.626;-8.668;2022-08-19T12:00:11;5.68;;;0.90;;
64351;SDS011;50680;52.626;-8.668;2022-08-19T12:02:40;5.82;;;1.30;;
64351;SDS011;50680;52.626;-8.668;2022-08-19T12:05:07;6.82;;;1.23;;
64351;SDS011;50680;52.626;-8.668;2022-08-19T12:10:06;5.80;;;1.05;;
64351;SDS011;50680;52.626;-8.668;2022-08-19T12:12:33;4.53;;;0.82;;
64351;SDS011;50680;52.626;-8.668;2022-08-19T12:15:00;8.45;;;1.17;;
64351;SDS011;50680;52.626;-8.668;2022-08-19T12:17:28;7.22;;;1.10;;
64351;SDS011;50680;52.626;-8.668;2022-08-19T12:19:57;5.93;;;1.20;;
64351;SDS011;50680;52.626;-8.668;2022-08-19T12:22:24;6.30;;;0.90;;
64351;SDS011;50680;52.626;-8.668;2022-08-19T12:24:51;5.85;;;0.93;;
64351;SDS011;50680;52.626;-8.668;2022-08-19T12:27:19;7.18;;;1.13;;
64351;SDS011;50680;52.626;-8.668;2022-08-19T12:30:06;4.68;;;0.90;;
64351;SDS011;50680;52.626;-8.668;2022-08-19T12:32:35;9.85;;;1.00;;
64351;SDS011;50680;52.626;-8.668;2022-08-19T12:35:03;4.13;;;0.82;;
64351;SDS011;50680;52.626;-8.668;2022-08-19T12:37:31;9.90;;;1.13;;
64351;SDS011;50680;52.626;-8.668;2022-08-19T12:39:58;7.50;;;0.93;;
64351;SDS011;50680;52.626;-8.668;2022-08-19T12:42:26;4.47;;;1.13;;
64351;SDS011;50680;52.626;-8.668;2022-08-19T12:44:53;11.73;;;1.35;;
64351;SDS011;50680;52.626;-8.668;2022-08-19T12:47:21;8.50;;;0.90;;
64351;SDS011;50680;52.626;-8.668;2022-08-19T12:49:49;9.35;;;1.08;;
64351;SDS011;50680;52.626;-8.668;2022-08-19T12:52:25;6.75;;;1.52;;
64351;SDS011;50680;52.626;-8.668;2022-08-19T12:54:54;9.65;;;1.13;;
64351;SDS011;50680;52.626;-8.668;2022-08-19T12:57:23;10.70;;;1.40;;
64351;SDS011;50680;52.626;-8.668;2022-08-19T12:59:59;7.88;;;1.08;;
64351;SDS011;50680;52.626;-8.668;2022-08-19T13:02:30;4.72;;;1.00;;
64351;SDS011;50680;52.626;-8.668;2022-08-19T13:05:04;6.22;;;0.80;;
64351;SDS011;50680;52.626;-8.668;2022-08-19T13:07:34;8.50;;;1.10;;
64351;SDS011;50680;52.626;-8.668;2022-08-19T13:10:02;6.20;;;1.20;;
64351;SDS011;50680;52.626;-8.668;2022-08-19T13:12:29;5.88;;;1.02;;
64351;SDS011;50680;52.626;-8.668;2022-08-19T13:14:56;12.20;;;1.20;;
64351;SDS011;50680;52.626;-8.668;2022-08-19T13:17:23;7.25;;;1.13;;
64351;SDS011;50680;52.626;-8.668;2022-08-19T13:19:50;10.02;;;1.63;;
64351;SDS011;50680;52.626;-8.668;2022-08-19T13:22:17;7.55;;;1.20;;
64351;SDS011;50680;52.626;-8.668;2022-08-19T13:24:44;9.95;;;1.02;;
64351;SDS011;50680;52.626;-8.668;2022-08-19T13:27:12;10.75;;;1.52;;
64351;SDS011;50680;52.626;-8.668;2022-08-19T13:29:40;11.75;;;1.30;;
64351;SDS011;50680;52.626;-8.668;2022-08-19T13:32:26;8.35;;;1.70;;
64351;SDS011;50680;52.626;-8.668;2022-08-19T13:35:14;10.80;;;1.15;;
64351;SDS011;50680;52.626;-8.668;2022-08-19T13:37:42;8.63;;;1.77;;
64351;SDS011;50680;52.626;-8.668;2022-08-19T13:40:12;8.68;;;1.23;;
64351;SDS011;50680;52.626;-8.668;2022-08-19T13:42:42;8.52;;;1.60;;
64351;SDS011;50680;52.626;-8.668;2022-08-19T13:45:14;12.73;;;1.52;;
64351;SDS011;50680;52.626;-8.668;2022-08-19T13:47:47;12.90;;;1.50;;
64351;SDS011;50680;52.626;-8.668;2022-08-19T13:50:21;7.68;;;1.30;;
64351;SDS011;50680;52.626;-8.668;2022-08-19T13:52:52;9.07;;;1.50;;
64351;SDS011;50680;52.626;-8.668;2022-08-19T13:55:19;10.20;;;1.30;;
64351;SDS011;50680;52.626;-8.668;2022-08-19T13:57:53;8.30;;;1.27;;
64351;SDS011;50680;52.626;-8.668;2022-08-19T14:00:26;4.10;;;0.90;;
64351;SDS011;50680;52.626;-8.668;2022-08-19T14:02:55;7.85;;;0.85;;
64351;SDS011;50680;52.626;-8.668;2022-08-19T14:05:24;5.15;;;0.93;;
64351;SDS011;50680;52.626;-8.668;2022-08-19T14:07:53;3.55;;;0.65;;
64351;SDS011;50680;52.626;-8.668;2022-08-19T14:10:20;6.30;;;0.50;;
64351;SDS011;50680;52.626;-8.668;2022-08-19T14:12:52;3.85;;;0.90;;
64351;SDS011;50680;52.626;-8.668;2022-08-19T14:15:21;1.85;;;0.50;;
64351;SDS011;50680;52.626;-8.668;2022-08-19T14:17:49;5.50;;;0.77;;
64351;SDS011;50680;52.626;-8.668;2022-08-19T14:20:17;2.80;;;0.60;;
64351;SDS011;50680;52.626;-8.668;2022-08-19T14:22:45;4.68;;;0.70;;
64351;SDS011;50680;52.626;-8.668;2022-08-19T14:25:18;3.35;;;0.70;;
64351;SDS011;50680;52.626;-8.668;2022-08-19T14:27:47;4.13;;;0.90;;
64351;SDS011;50680;52.626;-8.668;2022-08-19T14:30:16;8.07;;;1.15;;
64351;SDS011;50680;52.626;-8.668;2022-08-19T14:32:45;3.40;;;0.77;;
64351;SDS011;50680;52.626;-8.668;2022-08-19T14:35:13;11.02;;;1.10;;
64351;SDS011;50680;52.626;-8.668;2022-08-19T14:37:42;8.98;;;1.27;;
64351;SDS011;50680;52.626;-8.668;2022-08-19T14:40:12;2.10;;;0.57;;
64351;SDS011;50680;52.626;-8.668;2022-08-19T14:42:42;6.00;;;0.75;;
64351;SDS011;50680;52.626;-8.668;2022-08-19T14:45:10;7.45;;;0.98;;
64351;SDS011;50680;52.626;-8.668;2022-08-19T14:47:38;2.65;;;0.65;;
64351;SDS011;50680;52.626;-8.668;2022-08-19T14:50:15;3.40;;;0.65;;
64351;SDS011;50680;52.626;-8.668;2022-08-19T14:52:44;2.75;;;0.60;;
64351;SDS011;50680;52.626;-8.668;2022-08-19T14:55:14;4.78;;;0.73;;
64351;SDS011;50680;52.626;-8.668;2022-08-19T14:57:43;5.55;;;0.52;;
64351;SDS011;50680;52.626;-8.668;2022-08-19T15:00:10;4.35;;;0.57;;
64351;SDS011;50680;52.626;-8.668;2022-08-19T15:02:39;4.38;;;0.75;;
64351;SDS011;50680;52.626;-8.668;2022-08-19T15:05:07;6.40;;;0.98;;
64351;SDS011;50680;52.626;-8.668;2022-08-19T15:07:34;2.83;;;0.60;;
64351;SDS011;50680;52.626;-8.668;2022-08-19T15:10:02;4.55;;;0.80;;
64351;SDS011;50680;52.626;-8.668;2022-08-19T15:12:29;6.28;;;0.70;;
64351;SDS011;50680;52.626;-8.668;2022-08-19T15:14:56;4.25;;;0.82;;
64351;SDS011;50680;52.626;-8.668;2022-08-19T15:17:23;8.70;;;1.10;;
64351;SDS011;50680;52.626;-8.668;2022-08-19T15:20:12;2.58;;;0.60;;
64351;SDS011;50680;52.626;-8.668;2022-08-19T15:22:41;4.38;;;0.70;;
64351;SDS011;50680;52.626;-8.668;2022-08-19T15:25:09;3.50;;;0.82;;